Flight Track Log - Related Links

Times and Time Zones

All times are in EDT time to prevent confusion due to time zone crossing. See the ASQ6105 flight status page for this flight to view local times or setup timezone preferences in your user account.

Time Position Orientation Groundspeed Altitude Reporting Facility
EDT Latitude Longitude Course Direction KTS MPH feet Rate Location/Type
Sat 03:44:38 PM 36.1167 -86.6833 64° Northeast 156 180 1,100  Level Nashville TRACON
Sat 03:45:38 PM 36.0833 -86.6500 141° Southeast 202 232 3,200 1,500 Climbing Nashville TRACON
Sat 03:46:38 PM 36.0667 -86.5833 107° East 270 311 4,100 1,174 Climbing Nashville TRACON
Sat 03:47:56 PM 36.1000 -86.4833 68° East 269 310 5,900 1,786 Climbing Nashville TRACON
Sat 03:48:00 PM 36.1926 -86.1189 80° East  Level FlightAware Approximate
Sat 03:49:00 PM 36.2310 -85.9892 64° Northeast  Level FlightAware Approximate
Sat 03:49:26 PM 36.1250 -86.3508 77° East 286 329 9,100  Level Memphis Center
Sat 03:50:26 PM 36.1511 -86.2544 71° East 286 329 10,900 1,300 Climbing Memphis Center
Sat 03:51:26 PM 36.1831 -86.1475 70° East 311 358 11,700 1,050 Climbing Memphis Center
Sat 03:52:26 PM 36.2228 -86.0322 67° East 346 398 13,000 1,350 Climbing Memphis Center
Sat 03:53:26 PM 36.2625 -85.9144 67° East 359 413 14,400 1,304 Climbing Memphis Center
Sat 03:53:58 PM 36.2858 -85.8558 64° Northeast 373 429 15,000 452 Climbing Indianapolis Center
Sat 03:54:59 PM 36.3303 -85.7214 68° East 384 442 15,100 49 Climbing Indianapolis Center
Sat 03:56:00 PM 36.3742 -85.5903 67° East 402 463 15,100 246 Level Indianapolis Center
Sat 03:57:01 PM 36.4189 -85.4592 67° East 409 471 15,600 1,024 Climbing Indianapolis Center
Sat 03:58:03 PM 36.4631 -85.3314 67° East 401 461 17,200 1,317 Climbing Indianapolis Center
Sat 03:59:04 PM 36.5036 -85.2075 68° East 388 447 18,300 1,131 Climbing Indianapolis Center
Sat 04:00:05 PM 36.5456 -85.0811 68° East 392 451 19,500 1,180 Climbing Indianapolis Center
Sat 04:01:06 PM 36.5881 -84.9542 67° East 395 455 20,700 1,180 Climbing Indianapolis Center
Sat 04:02:07 PM 36.6311 -84.8253 67° East 400 460 21,900 1,180 Climbing Indianapolis Center
Sat 04:03:08 PM 36.6819 -84.6692 68° East 404 465 23,100 1,073 Climbing Indianapolis Center
Sat 04:04:10 PM 36.7256 -84.5364 68° East 412 474 24,100 878 Climbing Indianapolis Center
Sat 04:05:11 PM 36.7650 -84.4197 67° East 416 479 24,900 984 Climbing Indianapolis Center
Sat 04:06:12 PM 36.8150 -84.2625 68° East 417 480 26,100 1,082 Climbing Indianapolis Center
Sat 04:07:13 PM 36.8597 -84.1272 68° East 420 483 27,100 984 Climbing Indianapolis Center
Sat 04:08:14 PM 36.9028 -83.9917 68° East 419 482 28,100 984 Climbing Indianapolis Center
Sat 04:09:15 PM 36.9467 -83.8553 68° East 422 486 29,100 984 Climbing Indianapolis Center
Sat 04:10:16 PM 36.9919 -83.7181 68° East 425 489 30,100 984 Climbing Indianapolis Center
Sat 04:11:17 PM 37.0358 -83.5803 68° East 425 489 31,100 976 Climbing Indianapolis Center
Sat 04:12:19 PM 37.0792 -83.4408 69° East 427 491 32,100 927 Climbing Indianapolis Center
Sat 04:13:20 PM 37.1239 -83.2994 68° East 431 496 33,000 443 Climbing Indianapolis Center
Sat 04:14:21 PM 37.1706 -83.1519 68° East 445 512 33,000  Level Indianapolis Center
Sat 04:15:22 PM 37.2189 -82.9956 69° East 467 537 33,000  Level Indianapolis Center
Sat 04:16:24 PM 37.2681 -82.8367 69° East 480 552 33,000  Level Indianapolis Center
Sat 04:17:25 PM 37.3161 -82.6803 69° East 478 550 33,000  Level Indianapolis Center
Sat 04:18:26 PM 37.3639 -82.5267 69° East 471 542 33,000  Level Indianapolis Center
Sat 04:19:27 PM 37.4111 -82.3739 69° East 467 537 33,000  Level Indianapolis Center
Sat 04:20:28 PM 37.4572 -82.2186 69° East 471 542 33,000  Level Indianapolis Center
Sat 04:21:30 PM 37.5125 -82.0364 69° East 476 548 33,000  Level Indianapolis Center
Sat 04:22:31 PM 37.5581 -81.8819 70° East 473 544 33,000  Level Indianapolis Center
Sat 04:23:32 PM 37.6036 -81.7286 69° East 467 537 33,000  Level Indianapolis Center
Sat 04:24:33 PM 37.6492 -81.5728 70° East 471 542 33,000  Level Indianapolis Center
Sat 04:25:35 PM 37.6947 -81.4206 69° East 470 541 33,000  Level Indianapolis Center
Sat 04:26:36 PM 37.7392 -81.2681 70° East 473 544 33,000  Level Indianapolis Center
Sat 04:27:37 PM 37.7833 -81.1169 70° East 473 544 33,000  Level Indianapolis Center
Sat 04:28:38 PM 37.8425 -80.9475 66° East 473 544 33,000  Level Indianapolis Center
Sat 04:29:39 PM 37.8961 -80.7969 66° East 472 543 33,000  Level Indianapolis Center
Sat 04:30:41 PM 37.9578 -80.6506 62° Northeast 474 545 33,000 -319 Level Indianapolis Center
Sat 04:31:13 PM 38.0050 -80.5753 51° Northeast 462 532 32,500 -1,304 Descending Washington Center
Sat 04:32:13 PM 38.0836 -80.4381 54° Northeast 467 537 31,000 -1,700 Descending Washington Center
Sat 04:33:13 PM 38.1433 -80.3047 60° Northeast 467 537 29,100 -1,636 Descending Washington Center
Sat 04:34:14 PM 38.2114 -80.1583 59° Northeast 473 544 27,700 -1,513 Descending Washington Center
Sat 04:35:12 PM 38.2775 -80.0089 61° Northeast 473 544 26,100 -1,627 Descending Washington Center
Sat 04:36:12 PM 38.3436 -79.8567 61° Northeast 473 544 24,500 -1,050 Descending Washington Center
Sat 04:37:12 PM 38.4050 -79.7064 62° Northeast 473 544 24,000 -246 Descending Washington Center
Sat 04:38:14 PM 38.4711 -79.5431 63° Northeast 468 539 24,000  Level Washington Center
Sat 04:39:12 PM 38.5281 -79.3922 64° Northeast 463 533 24,000 -252 Level Washington Center
Sat 04:40:13 PM 38.5789 -79.2356 67° East 463 533 23,500 -1,377 Descending Washington Center
Sat 04:41:14 PM 38.6206 -79.0914 70° East 471 542 21,200 -2,672 Descending Washington Center
Sat 04:42:12 PM 38.6583 -78.9414 72° East 457 526 18,200 -2,975 Descending Washington Center
Sat 04:43:13 PM 38.6750 -78.7908 82° East 443 510 15,300 -2,656 Descending Washington Center
Sat 04:44:14 PM 38.6933 -78.6478 81° East 421 484 12,800 -2,083 Descending Washington Center
Sat 04:45:14 PM 38.7111 -78.5103 81° East 403 464 11,100 -915 Descending Washington Center
Sat 04:46:12 PM 38.7369 -78.3889 75° East 378 435 11,000 -504 Descending Washington Center
Sat 04:47:13 PM 38.8078 -78.3089 41° Northeast 327 376 10,100 -492 Descending Washington Center
Sat 04:48:14 PM 38.8806 -78.2236 42° Northeast 332 382 10,000 -49 Descending Washington Center
Sat 04:49:15 PM 38.9575 -78.1356 42° Northeast 349 402 10,000 -203 Level Washington Center
Sat 04:50:12 PM 39.0258 -78.0550 42° Northeast 349 402 9,600 -966 Descending Washington Center
Sat 04:51:13 PM 39.0856 -77.9822 43° Northeast 318 366 8,100 -1,488 Descending Washington Center
Sat 04:52:13 PM 39.1411 -77.9092 46° Northeast 291 335 6,600 -1,339 Descending Washington Center
Sat 04:53:14 PM 39.1947 -77.8358 47° Northeast 281 323 5,400 -732 Descending Washington Center
Sat 04:54:57 PM 39.1833 -77.6333 94° East 280 322 4,600 -532 Descending Potomac TRACON
Sat 04:55:52 PM 39.1667 -77.5667 108° East 255 293 4,000 -678 Descending Potomac TRACON
Sat 04:56:52 PM 39.1500 -77.5000 108° East 212 244 3,300 -600 Descending Potomac TRACON
Sat 04:57:52 PM 39.1000 -77.4500 142° Southeast 198 228 2,800 -500 Descending Potomac TRACON

Login

Don't have an account? Register now (free) for customized features, flight alerts, and more!